Time;durP1;ratioP1;P1;durP2;ratioP2;P2;SDS_P1;SDS_P2;PMS_P1;PMS_P2;Temp;Humidity;BMP_temperature;BMP_pressure;BME280_temperature;BME280_humidity;BME280_pressure;Samples;Min_cycle;Max_cycle;Signal;HPM_P1;HPM_P2
2023/01/08 00:00:07;;;;;;;2.92;2.40;;;9.10;99.90;;;;;;5031748;28;20313;-68
2023/01/08 00:02:34;;;;;;;3.50;2.55;;;9.10;99.90;;;;;;5049592;28;21976;-68
2023/01/08 00:05:01;;;;;;;4.38;2.58;;;9.10;99.90;;;;;;5043310;28;21355;-68
2023/01/08 00:07:28;;;;;;;3.33;2.65;;;9.10;99.90;;;;;;5050361;28;22057;-68
2023/01/08 00:09:55;;;;;;;2.60;2.40;;;9.10;99.90;;;;;;5036405;28;20204;-68
2023/01/08 00:12:22;;;;;;;2.72;2.22;;;9.10;99.90;;;;;;5061276;28;20310;-68
2023/01/08 00:14:50;;;;;;;4.15;2.40;;;8.20;99.90;;;;;;5031228;28;20217;-68
2023/01/08 00:17:17;;;;;;;2.28;2.08;;;9.10;99.90;;;;;;5057786;28;20253;-68
2023/01/08 00:19:43;;;;;;;3.97;2.60;;;9.10;99.90;;;;;;5052146;28;20287;-67
2023/01/08 00:22:10;;;;;;;5.05;2.30;;;9.10;99.90;;;;;;5041362;28;20342;-68
2023/01/08 00:24:38;;;;;;;2.83;2.40;;;9.10;99.90;;;;;;5035410;28;20786;-68
2023/01/08 00:27:06;;;;;;;3.47;2.37;;;9.10;99.90;;;;;;5059941;28;20196;-68
2023/01/08 00:29:33;;;;;;;3.25;2.45;;;9.20;99.90;;;;;;5040598;28;20232;-68
2023/01/08 00:32:01;;;;;;;5.40;2.28;;;9.20;99.90;;;;;;5059155;28;20310;-68
2023/01/08 00:34:28;;;;;;;3.15;2.40;;;9.20;99.90;;;;;;5061461;28;20216;-68
2023/01/08 00:36:55;;;;;;;5.07;2.63;;;9.20;99.90;;;;;;5023425;28;21737;-68
2023/01/08 00:39:22;;;;;;;3.15;2.50;;;9.20;99.90;;;;;;5034905;28;20284;-68
2023/01/08 00:41:49;;;;;;;2.63;2.42;;;9.20;99.90;;;;;;5028211;28;20205;-68
2023/01/08 00:44:15;;;;;;;5.03;2.90;;;9.20;99.90;;;;;;5061513;28;20201;-68
2023/01/08 00:46:42;;;;;;;2.53;2.28;;;9.20;99.90;;;;;;5029345;28;20425;-67
2023/01/08 00:49:10;;;;;;;3.50;2.78;;;9.20;99.90;;;;;;5056577;28;20265;-68
2023/01/08 00:51:37;;;;;;;4.00;2.55;;;9.20;99.90;;;;;;5045523;28;20894;-68
2023/01/08 00:54:04;;;;;;;3.40;2.58;;;9.20;99.90;;;;;;5039698;28;20216;-67
2023/01/08 00:56:31;;;;;;;3.03;2.40;;;9.20;99.90;;;;;;5050339;28;20291;-68
2023/01/08 00:58:58;;;;;;;5.10;2.80;;;9.20;99.90;;;;;;5029951;28;20402;-68
2023/01/08 01:01:25;;;;;;;2.90;2.60;;;9.20;99.90;;;;;;5011902;28;21069;-68
2023/01/08 01:03:51;;;;;;;5.28;2.95;;;9.20;99.90;;;;;;5046874;28;20977;-68
2023/01/08 01:06:20;;;;;;;3.85;2.42;;;9.10;99.90;;;;;;5033940;28;20349;-67
2023/01/08 01:08:47;;;;;;;3.45;2.75;;;9.20;99.90;;;;;;5043007;28;20286;-68
2023/01/08 01:11:19;;;;;;;3.78;2.60;;;9.20;99.90;;;;;;5034964;28;20224;-68
2023/01/08 01:13:47;;;;;;;3.83;2.83;;;9.20;99.90;;;;;;5045355;28;21119;-68
2023/01/08 01:16:14;;;;;;;3.08;2.75;;;9.20;99.90;;;;;;5024338;28;20310;-68
2023/01/08 01:18:41;;;;;;;7.00;2.47;;;9.10;99.90;;;;;;5052594;28;21028;-68
2023/01/08 01:21:12;;;;;;;4.65;2.90;;;9.10;99.90;;;;;;5057444;28;20300;-67
2023/01/08 01:23:40;;;;;;;4.57;2.90;;;9.10;99.90;;;;;;5040062;28;20233;-68
2023/01/08 01:26:15;;;;;;;4.63;2.88;;;9.10;99.90;;;;;;5030852;28;20247;-68
2023/01/08 01:28:42;;;;;;;4.70;2.70;;;9.10;99.90;;;;;;5025493;28;20224;-68
2023/01/08 01:31:12;;;;;;;3.15;2.35;;;9.10;99.90;;;;;;5044821;28;20331;-68
2023/01/08 01:33:38;;;;;;;4.07;2.75;;;9.10;99.90;;;;;;5052738;28;20274;-68
2023/01/08 01:36:06;;;;;;;3.28;2.80;;;9.10;99.90;;;;;;5064062;28;20702;-68
2023/01/08 01:38:33;;;;;;;3.45;2.90;;;9.10;99.90;;;;;;5048682;28;20752;-68
2023/01/08 01:41:02;;;;;;;7.45;2.95;;;9.10;99.90;;;;;;5058783;28;20273;-67
2023/01/08 01:43:37;;;;;;;4.00;2.60;;;9.10;99.90;;;;;;5050558;28;20231;-68
2023/01/08 01:46:06;;;;;;;2.85;2.63;;;9.10;99.90;;;;;;5061338;28;20269;-68
2023/01/08 01:48:33;;;;;;;3.80;3.00;;;9.10;99.90;;;;;;5028211;28;20598;-68
2023/01/08 01:51:00;;;;;;;3.72;2.80;;;9.10;99.90;;;;;;5062487;28;20350;-68
2023/01/08 01:53:31;;;;;;;3.90;2.65;;;9.10;99.90;;;;;;5062241;28;20311;-67
2023/01/08 01:55:59;;;;;;;4.57;2.83;;;9.10;99.90;;;;;;5049130;28;20251;-68
2023/01/08 01:58:29;;;;;;;2.58;2.38;;;9.10;99.90;;;;;;5053844;28;20263;-67
2023/01/08 02:00:58;;;;;;;3.88;2.88;;;9.10;99.90;;;;;;5063424;28;20797;-67
2023/01/08 02:03:29;;;;;;;3.38;2.60;;;9.10;99.90;;;;;;5038355;28;20381;-68
2023/01/08 02:06:03;;;;;;;4.13;2.90;;;9.10;99.90;;;;;;5056518;28;20224;-67
2023/01/08 02:08:38;;;;;;;3.58;2.70;;;9.10;99.90;;;;;;5054223;28;20312;-68
2023/01/08 02:11:10;;;;;;;3.90;2.47;;;9.10;99.90;;;;;;5068319;28;20911;-67
2023/01/08 02:13:42;;;;;;;2.90;2.60;;;9.10;99.90;;;;;;5045415;28;20228;-68
2023/01/08 02:16:16;;;;;;;7.90;2.55;;;9.10;99.90;;;;;;5060406;28;20327;-67
2023/01/08 02:18:47;;;;;;;3.15;2.70;;;9.10;99.90;;;;;;5029369;28;20231;-68
2023/01/08 02:21:19;;;;;;;4.22;2.97;;;9.20;99.90;;;;;;5064977;28;20196;-68
2023/01/08 02:23:53;;;;;;;4.47;2.75;;;9.20;99.90;;;;;;5055960;28;21084;-68
2023/01/08 02:26:26;;;;;;;3.83;3.10;;;9.20;99.90;;;;;;5063061;28;20227;-68
2023/01/08 02:28:57;;;;;;;4.13;2.50;;;9.20;99.90;;;;;;5053143;28;21150;-68
2023/01/08 02:31:26;;;;;;;2.80;2.60;;;9.20;99.90;;;;;;5047340;28;20228;-68
2023/01/08 02:33:53;;;;;;;3.15;2.58;;;9.20;99.90;;;;;;5014254;28;20354;-68
2023/01/08 02:36:32;;;;;;;5.32;3.20;;;9.10;99.90;;;;;;5032929;28;20232;-68
2023/01/08 02:39:13;;;;;;;3.03;2.63;;;9.10;99.90;;;;;;5043495;28;20297;-68
2023/01/08 02:41:53;;;;;;;3.83;2.75;;;9.10;99.90;;;;;;5025572;28;20291;-68
2023/01/08 02:44:26;;;;;;;3.05;2.75;;;9.10;99.90;;;;;;5036393;28;20207;-67
2023/01/08 02:46:54;;;;;;;3.72;2.75;;;9.10;99.90;;;;;;5033764;28;20205;-68
2023/01/08 02:49:24;;;;;;;3.47;2.42;;;9.10;99.90;;;;;;5020959;28;20246;-69
2023/01/08 02:51:54;;;;;;;3.67;2.63;;;9.10;99.90;;;;;;5045117;28;20248;-68
2023/01/08 02:54:24;;;;;;;3.47;2.58;;;9.10;99.90;;;;;;5035114;28;20224;-68
2023/01/08 02:56:58;;;;;;;5.53;2.60;;;9.10;99.90;;;;;;5048089;28;20208;-67
2023/01/08 02:59:25;;;;;;;3.80;2.70;;;9.10;99.90;;;;;;5033158;28;20232;-68
2023/01/08 03:01:54;;;;;;;4.00;2.60;;;9.10;99.90;;;;;;5035495;28;20978;-68
2023/01/08 03:04:24;;;;;;;3.00;2.70;;;9.10;99.90;;;;;;5018010;28;20201;-68
2023/01/08 03:06:51;;;;;;;3.20;2.85;;;9.10;99.90;;;;;;5047755;28;20228;-68
2023/01/08 03:09:19;;;;;;;3.53;2.72;;;9.10;99.90;;;;;;5046391;28;20754;-68
2023/01/08 03:11:53;;;;;;;5.63;3.13;;;9.10;99.90;;;;;;5032217;28;20224;-67
2023/01/08 03:14:25;;;;;;;3.38;2.65;;;9.20;99.90;;;;;;5031498;28;20228;-68
2023/01/08 03:16:55;;;;;;;5.85;3.15;;;9.20;99.90;;;;;;5043969;28;20200;-67
2023/01/08 03:19:26;;;;;;;4.38;3.00;;;9.30;99.90;;;;;;5033997;28;20282;-68
2023/01/08 03:21:54;;;;;;;4.05;3.00;;;9.30;99.90;;;;;;5024776;28;20727;-69
2023/01/08 03:24:25;;;;;;;4.97;3.15;;;9.30;99.90;;;;;;5040624;28;21007;-68
2023/01/08 03:26:56;;;;;;;6.57;3.00;;;9.40;99.90;;;;;;5033234;28;20220;-68
2023/01/08 03:29:25;;;;;;;3.72;2.83;;;9.30;99.90;;;;;;5044232;28;20971;-68
2023/01/08 03:31:56;;;;;;;3.45;2.60;;;9.40;99.90;;;;;;5050239;28;20228;-68
2023/01/08 03:34:25;;;;;;;2.95;2.67;;;9.40;99.90;;;;;;5047975;28;20986;-68
2023/01/08 03:36:54;;;;;;;3.33;2.75;;;9.40;99.90;;;;;;5036000;28;20235;-68
2023/01/08 03:39:24;;;;;;;3.45;3.15;;;9.40;99.90;;;;;;5058588;28;20295;-68
2023/01/08 03:41:54;;;;;;;6.50;2.88;;;9.40;99.90;;;;;;5054632;28;20350;-68
2023/01/08 03:44:21;;;;;;;3.95;3.22;;;9.40;99.90;;;;;;5061766;28;20276;-67
2023/01/08 03:46:51;;;;;;;4.82;3.53;;;9.40;99.90;;;;;;5055439;28;20289;-68
2023/01/08 03:49:21;;;;;;;3.33;2.72;;;9.40;99.90;;;;;;5054464;28;20228;-68
2023/01/08 03:51:48;;;;;;;5.65;3.08;;;9.40;99.90;;;;;;5058893;28;20634;-68
2023/01/08 03:54:17;;;;;;;5.18;3.33;;;9.50;99.90;;;;;;5028115;28;20203;-68
2023/01/08 03:56:44;;;;;;;3.38;2.72;;;9.50;99.90;;;;;;5061951;28;20315;-68
2023/01/08 03:59:12;;;;;;;3.10;2.80;;;9.50;99.90;;;;;;5050544;28;20319;-68
2023/01/08 04:01:39;;;;;;;3.35;3.00;;;9.50;99.90;;;;;;5048756;28;20349;-68
2023/01/08 04:04:09;;;;;;;4.13;3.30;;;9.50;99.90;;;;;;5057800;28;20198;-68
2023/01/08 04:06:35;;;;;;;3.45;3.13;;;9.50;99.90;;;;;;5052436;28;20224;-68
2023/01/08 04:09:02;;;;;;;3.40;2.90;;;9.50;99.90;;;;;;5037846;28;20303;-68
2023/01/08 04:11:29;;;;;;;3.45;2.90;;;9.50;99.90;;;;;;5056472;28;20752;-68
2023/01/08 04:13:56;;;;;;;3.83;3.00;;;9.50;99.90;;;;;;5049751;28;20200;-67
2023/01/08 04:16:23;;;;;;;3.10;2.75;;;9.50;99.90;;;;;;5049301;28;20223;-68
2023/01/08 04:18:50;;;;;;;3.13;2.65;;;9.50;99.90;;;;;;5063987;28;20366;-68
2023/01/08 04:21:18;;;;;;;5.85;3.30;;;9.50;99.90;;;;;;5052441;28;20260;-68
2023/01/08 04:23:45;;;;;;;3.10;2.80;;;9.50;99.90;;;;;;5014232;28;20273;-67
2023/01/08 04:26:12;;;;;;;3.70;2.83;;;9.50;99.90;;;;;;5056581;28;20226;-68
2023/01/08 04:28:39;;;;;;;3.03;2.70;;;9.50;99.90;;;;;;5052187;28;20323;-69
2023/01/08 04:31:07;;;;;;;4.65;2.78;;;9.50;99.90;;;;;;5062893;28;20650;-67
2023/01/08 04:33:34;;;;;;;3.10;2.58;;;9.50;99.90;;;;;;5056052;28;20819;-68
2023/01/08 04:36:01;;;;;;;3.65;2.88;;;9.50;99.90;;;;;;5058253;28;20224;-68
2023/01/08 04:38:29;;;;;;;5.40;2.95;;;9.50;99.90;;;;;;5057518;28;20224;-69
2023/01/08 04:40:57;;;;;;;3.22;2.92;;;9.50;99.90;;;;;;5043145;28;20835;-68
2023/01/08 04:43:24;;;;;;;2.80;2.38;;;9.60;99.90;;;;;;5067788;28;20220;-67
2023/01/08 04:45:51;;;;;;;4.50;2.38;;;9.60;99.90;;;;;;5047154;28;20315;-68
2023/01/08 04:48:18;;;;;;;5.32;3.03;;;9.60;99.90;;;;;;5053067;28;20204;-68
2023/01/08 04:50:45;;;;;;;3.78;2.95;;;9.60;99.90;;;;;;5053131;28;20289;-68
2023/01/08 04:53:12;;;;;;;2.83;2.45;;;9.60;99.90;;;;;;5062660;28;20287;-68
2023/01/08 04:55:40;;;;;;;3.80;2.42;;;9.60;99.90;;;;;;5033270;28;20222;-68
2023/01/08 04:58:07;;;;;;;5.53;2.95;;;9.50;99.90;;;;;;5063517;28;20311;-68
2023/01/08 05:00:34;;;;;;;4.05;2.75;;;9.50;99.90;;;;;;5047802;28;20262;-68
2023/01/08 05:03:01;;;;;;;4.68;2.50;;;9.50;99.90;;;;;;5059461;28;20274;-68
2023/01/08 05:05:28;;;;;;;3.28;2.50;;;9.50;99.90;;;;;;5052582;28;21069;-68
2023/01/08 05:07:55;;;;;;;3.60;2.65;;;9.50;99.90;;;;;;5049152;28;20322;-68
2023/01/08 05:10:22;;;;;;;3.33;2.55;;;9.50;99.90;;;;;;5061698;28;20294;-68
2023/01/08 05:12:50;;;;;;;3.33;2.55;;;9.50;99.90;;;;;;5035648;28;20542;-68
2023/01/08 05:15:17;;;;;;;4.00;2.40;;;9.40;99.90;;;;;;5068961;28;20267;-68
2023/01/08 05:17:44;;;;;;;4.15;2.80;;;9.50;99.90;;;;;;5053878;28;20205;-69
2023/01/08 05:20:11;;;;;;;3.70;2.83;;;9.50;99.90;;;;;;5059474;28;20200;-68
2023/01/08 05:22:38;;;;;;;6.40;2.75;;;9.40;99.90;;;;;;5061628;28;20284;-68
2023/01/08 05:25:06;;;;;;;3.80;2.60;;;9.40;99.90;;;;;;5065023;28;20212;-68
2023/01/08 05:27:32;;;;;;;6.05;2.65;;;9.50;99.90;;;;;;5039955;28;20299;-67
2023/01/08 05:30:01;;;;;;;3.40;2.50;;;9.50;99.90;;;;;;5068499;28;20242;-68
2023/01/08 05:32:27;;;;;;;3.30;2.50;;;9.40;99.90;;;;;;5054429;28;20310;-67
2023/01/08 05:34:54;;;;;;;2.65;2.45;;;9.40;99.90;;;;;;5050392;28;20695;-68
2023/01/08 05:37:21;;;;;;;3.38;2.30;;;9.40;99.90;;;;;;5067044;28;20291;-68
2023/01/08 05:39:48;;;;;;;3.00;2.60;;;9.40;99.90;;;;;;5052919;28;20231;-68
2023/01/08 05:42:15;;;;;;;3.38;2.35;;;9.40;99.90;;;;;;5043433;28;20334;-68
2023/01/08 05:44:42;;;;;;;3.80;2.67;;;9.30;99.90;;;;;;5051842;28;20192;-68
2023/01/08 05:47:10;;;;;;;4.20;2.80;;;9.30;99.90;;;;;;5051886;28;20204;-67
2023/01/08 05:49:37;;;;;;;3.60;2.38;;;9.40;99.90;;;;;;5057035;28;20202;-69
2023/01/08 05:52:04;;;;;;;2.97;2.65;;;9.30;99.90;;;;;;5053651;28;20238;-68
2023/01/08 05:54:31;;;;;;;2.65;2.35;;;9.30;99.90;;;;;;5053809;28;20279;-67
2023/01/08 05:56:58;;;;;;;3.10;2.63;;;9.30;99.90;;;;;;5041270;28;20227;-68
2023/01/08 05:59:24;;;;;;;2.80;2.30;;;9.30;99.90;;;;;;5024538;28;20693;-68
2023/01/08 06:01:51;;;;;;;3.45;2.38;;;9.30;99.90;;;;;;5039481;28;20299;-68
2023/01/08 06:04:20;;;;;;;3.35;2.60;;;9.30;99.90;;;;;;5042875;28;20673;-68
2023/01/08 06:06:46;;;;;;;4.80;2.45;;;9.20;99.90;;;;;;5051254;28;20925;-67
2023/01/08 06:09:13;;;;;;;3.78;2.45;;;9.20;99.90;;;;;;5055979;28;20220;-68
2023/01/08 06:11:40;;;;;;;3.63;2.35;;;9.20;99.90;;;;;;5057302;28;20323;-68
2023/01/08 06:14:07;;;;;;;2.47;2.20;;;9.20;99.90;;;;;;5045888;28;20232;-68
2023/01/08 06:16:34;;;;;;;15.10;2.58;;;9.20;99.90;;;;;;5056668;28;20620;-68
2023/01/08 06:19:01;;;;;;;2.30;2.10;;;9.20;99.90;;;;;;5037267;28;20322;-68
2023/01/08 06:21:29;;;;;;;3.42;2.22;;;9.20;99.90;;;;;;5066603;28;20295;-67
2023/01/08 06:23:56;;;;;;;3.50;2.38;;;9.20;99.90;;;;;;5052586;28;20268;-68
2023/01/08 06:26:23;;;;;;;4.55;2.47;;;9.10;99.90;;;;;;5055023;28;20273;-68
2023/01/08 06:28:49;;;;;;;4.68;2.63;;;9.10;99.90;;;;;;5037465;28;20295;-68
2023/01/08 06:31:16;;;;;;;3.00;2.30;;;9.20;99.90;;;;;;5057673;28;20319;-68
2023/01/08 06:33:43;;;;;;;4.35;2.60;;;9.20;99.90;;;;;;5044794;28;20320;-67
2023/01/08 06:36:10;;;;;;;8.10;2.55;;;9.10;99.90;;;;;;5063965;28;20733;-68
2023/01/08 06:38:38;;;;;;;3.22;2.70;;;9.10;99.90;;;;;;5054917;28;21066;-67
2023/01/08 06:41:07;;;;;;;2.85;2.28;;;9.10;99.90;;;;;;5052650;28;20822;-67
2023/01/08 06:43:34;;;;;;;5.85;2.65;;;9.10;99.90;;;;;;5034436;28;20204;-68
2023/01/08 06:46:01;;;;;;;3.33;2.50;;;9.10;99.90;;;;;;5039826;28;20294;-68
2023/01/08 06:48:28;;;;;;;3.58;2.60;;;9.10;99.90;;;;;;5049376;28;20323;-68
2023/01/08 06:50:56;;;;;;;3.33;2.50;;;9.10;99.90;;;;;;5061653;28;20235;-67
2023/01/08 06:53:23;;;;;;;3.42;2.78;;;9.10;99.90;;;;;;5063465;28;20672;-68
2023/01/08 06:55:57;;;;;;;4.38;2.78;;;9.10;99.90;;;;;;5045693;28;20328;-69
2023/01/08 06:58:24;;;;;;;4.85;2.33;;;9.10;99.90;;;;;;5060756;28;20768;-68
2023/01/08 07:00:51;;;;;;;3.42;2.47;;;9.00;99.90;;;;;;5029889;28;20345;-67
2023/01/08 07:03:18;;;;;;;4.82;2.63;;;9.10;99.90;;;;;;5023950;28;20238;-68
2023/01/08 07:05:45;;;;;;;3.63;2.65;;;9.10;99.90;;;;;;5058618;28;20642;-67
2023/01/08 07:08:13;;;;;;;3.95;2.42;;;9.10;99.90;;;;;;5045693;28;20226;-68
2023/01/08 07:10:40;;;;;;;3.95;2.63;;;9.10;99.90;;;;;;5043187;28;20317;-68
2023/01/08 07:13:08;;;;;;;5.50;2.63;;;9.10;99.90;;;;;;5045719;28;20804;-68
2023/01/08 07:15:36;;;;;;;5.60;2.90;;;9.00;99.90;;;;;;5019750;28;20211;-67
2023/01/08 07:18:05;;;;;;;4.70;2.72;;;9.10;99.90;;;;;;5048815;28;20231;-68
2023/01/08 07:20:33;;;;;;;4.55;2.70;;;9.10;99.90;;;;;;5038759;28;20232;-68
2023/01/08 07:23:01;;;;;;;2.38;2.17;;;9.10;99.90;;;;;;5058237;28;20311;-68
2023/01/08 07:25:28;;;;;;;4.82;2.42;;;9.10;99.90;;;;;;5050192;28;20226;-67
2023/01/08 07:27:55;;;;;;;3.40;2.58;;;9.10;99.90;;;;;;5051407;28;20327;-69
2023/01/08 07:30:23;;;;;;;2.97;2.45;;;9.10;99.90;;;;;;5032238;28;20319;-67
2023/01/08 07:32:51;;;;;;;3.35;2.40;;;9.10;99.90;;;;;;5047671;28;20315;-68
2023/01/08 07:35:18;;;;;;;3.05;2.28;;;9.10;99.90;;;;;;5035955;28;20645;-68
2023/01/08 07:37:44;;;;;;;3.65;2.75;;;9.10;99.90;;;;;;5058255;28;20706;-68
2023/01/08 07:40:12;;;;;;;2.95;2.40;;;9.10;99.90;;;;;;5046491;28;20319;-68
2023/01/08 07:42:39;;;;;;;3.88;2.42;;;9.10;99.90;;;;;;5029575;28;20227;-68
2023/01/08 07:45:07;;;;;;;5.18;2.28;;;9.10;99.90;;;;;;5033879;28;20804;-68
2023/01/08 07:47:35;;;;;;;3.28;2.33;;;9.10;99.90;;;;;;5032431;28;20275;-68
2023/01/08 07:50:02;;;;;;;3.13;2.42;;;9.10;99.90;;;;;;5048427;28;20335;-68
2023/01/08 07:52:29;;;;;;;3.55;2.65;;;9.10;99.90;;;;;;5049486;28;20334;-68
2023/01/08 07:54:56;;;;;;;3.60;2.50;;;9.10;99.90;;;;;;5058878;28;20310;-68
2023/01/08 07:57:23;;;;;;;4.28;2.10;;;9.10;99.90;;;;;;5041213;28;20290;-68
2023/01/08 07:59:50;;;;;;;2.60;2.40;;;9.10;99.90;;;;;;5027899;28;20318;-68
2023/01/08 08:02:17;;;;;;;3.55;2.53;;;9.10;99.90;;;;;;5035655;28;20342;-67
2023/01/08 08:04:45;;;;;;;5.00;2.65;;;9.10;99.90;;;;;;5046931;28;20947;-68
2023/01/08 08:07:12;;;;;;;6.25;2.97;;;9.10;99.90;;;;;;5020867;28;20357;-67
2023/01/08 08:09:39;;;;;;;5.38;2.78;;;9.10;99.90;;;;;;5045046;28;20711;-68
2023/01/08 08:12:06;;;;;;;2.30;2.03;;;9.10;99.90;;;;;;5044445;28;20295;-68
2023/01/08 08:14:33;;;;;;;4.15;2.42;;;9.10;99.90;;;;;;5034672;28;20205;-68
2023/01/08 08:17:00;;;;;;;3.03;2.33;;;9.10;99.90;;;;;;5026803;28;20214;-68
2023/01/08 08:19:27;;;;;;;4.05;2.55;;;9.10;99.90;;;;;;5039991;28;20322;-68
2023/01/08 08:21:55;;;;;;;3.75;2.42;;;9.10;99.90;;;;;;5042398;28;20267;-67
2023/01/08 08:24:22;;;;;;;2.67;2.47;;;9.10;99.90;;;;;;5045123;28;20292;-67
2023/01/08 08:26:53;;;;;;;3.70;2.38;;;9.10;99.90;;;;;;5050547;28;20330;-68
2023/01/08 08:29:19;;;;;;;3.83;2.08;;;9.10;99.90;;;;;;5041587;28;20208;-68
2023/01/08 08:31:49;;;;;;;3.47;2.10;;;9.10;99.90;;;;;;5035005;28;21172;-68
2023/01/08 08:34:16;;;;;;;2.42;2.20;;;9.10;99.90;;;;;;5063269;28;20346;-68
2023/01/08 08:36:43;;;;;;;4.20;2.35;;;9.10;99.90;;;;;;5040197;28;21572;-68
2023/01/08 08:39:11;;;;;;;5.40;2.35;;;9.20;99.90;;;;;;5049087;28;20234;-67
2023/01/08 08:41:38;;;;;;;2.90;2.25;;;9.20;99.90;;;;;;5055377;28;20347;-68
2023/01/08 08:44:05;;;;;;;2.30;1.80;;;9.20;99.90;;;;;;5035629;28;20224;-68
2023/01/08 08:46:32;;;;;;;3.08;2.00;;;9.20;99.90;;;;;;5018567;28;20310;-68
2023/01/08 08:48:59;;;;;;;2.95;1.95;;;9.10;99.90;;;;;;5050035;28;20717;-68
2023/01/08 08:51:26;;;;;;;1.95;1.73;;;9.20;99.90;;;;;;5050612;28;20741;-68
2023/01/08 08:53:53;;;;;;;2.25;1.90;;;9.10;99.90;;;;;;5040571;28;20761;-68
2023/01/08 08:56:21;;;;;;;5.43;2.08;;;9.20;99.90;;;;;;5060183;28;20946;-68
2023/01/08 08:58:49;;;;;;;2.53;1.90;;;9.20;99.90;;;;;;5045570;28;20204;-68
2023/01/08 09:01:16;;;;;;;3.05;1.98;;;9.20;99.90;;;;;;5056853;28;20212;-68
2023/01/08 09:03:43;;;;;;;2.63;1.88;;;9.20;99.90;;;;;;5016416;28;20220;-68
2023/01/08 09:06:13;;;;;;;3.13;2.25;;;9.20;99.90;;;;;;5058733;28;20338;-68
2023/01/08 09:08:39;;;;;;;3.53;2.08;;;9.20;99.90;;;;;;5016953;28;20299;-68
2023/01/08 09:11:06;;;;;;;3.97;1.85;;;9.30;99.90;;;;;;5065020;28;20658;-68
2023/01/08 09:13:36;;;;;;;3.92;2.28;;;9.40;99.90;;;;;;5051275;28;20308;-68
2023/01/08 09:16:03;;;;;;;4.20;2.00;;;9.30;99.90;;;;;;5056296;28;20299;-68
2023/01/08 09:18:30;;;;;;;3.00;1.88;;;9.30;99.90;;;;;;5039492;28;20282;-68
2023/01/08 09:20:57;;;;;;;2.53;1.80;;;9.30;99.90;;;;;;5054730;28;20319;-68
2023/01/08 09:23:24;;;;;;;2.22;1.80;;;9.30;99.90;;;;;;5047026;28;20685;-68
2023/01/08 09:25:59;;;;;;;2.42;1.75;;;9.30;99.90;;;;;;5055433;28;20231;-67
2023/01/08 09:28:25;;;;;;;1.83;1.45;;;9.30;99.90;;;;;;5064028;28;20290;-68
2023/01/08 09:30:54;;;;;;;2.40;1.52;;;9.30;99.90;;;;;;5041505;28;20820;-68
2023/01/08 09:33:21;;;;;;;4.82;1.73;;;9.30;99.90;;;;;;5021416;28;20213;-68
2023/01/08 09:35:48;;;;;;;1.92;1.58;;;9.30;99.90;;;;;;5055929;28;20741;-68
2023/01/08 09:38:15;;;;;;;2.53;1.48;;;9.20;99.90;;;;;;5056225;28;20306;-68
2023/01/08 09:40:48;;;;;;;3.88;1.73;;;9.20;99.90;;;;;;5049676;28;20259;-68
2023/01/08 09:43:17;;;;;;;7.22;1.63;;;9.10;99.90;;;;;;5065296;28;20315;-68
2023/01/08 09:45:49;;;;;;;3.38;1.35;;;9.20;99.90;;;;;;5040247;28;20666;-68
2023/01/08 09:48:20;;;;;;;1.40;1.08;;;9.10;99.90;;;;;;5017934;28;20744;-67
2023/01/08 09:50:47;;;;;;;2.83;1.23;;;9.10;99.90;;;;;;5064735;28;20232;-68
2023/01/08 09:53:17;;;;;;;2.17;1.20;;;9.20;99.90;;;;;;5049542;28;21195;-68
2023/01/08 09:55:46;;;;;;;2.13;1.33;;;9.20;99.90;;;;;;5051504;28;20215;-68
2023/01/08 09:58:23;;;;;;;3.47;1.48;;;9.20;99.90;;;;;;5051713;28;20327;-68
2023/01/08 10:00:50;;;;;;;1.95;1.45;;;9.20;99.90;;;;;;5046626;28;20308;-68
2023/01/08 10:03:18;;;;;;;3.53;1.52;;;9.20;99.90;;;;;;5047607;28;20352;-68
2023/01/08 10:05:45;;;;;;;4.00;1.80;;;9.20;99.90;;;;;;5031589;28;20299;-67
2023/01/08 10:08:14;;;;;;;2.38;1.17;;;9.30;99.90;;;;;;5022314;28;20226;-68
2023/01/08 10:10:44;;;;;;;3.42;2.30;;;9.30;99.90;;;;;;5043100;28;20367;-68
2023/01/08 10:13:12;;;;;;;4.85;1.38;;;9.30;99.90;;;;;;5047278;28;20257;-67
2023/01/08 10:15:40;;;;;;;2.05;1.40;;;9.40;99.90;;;;;;5044507;28;20311;-68
2023/01/08 10:18:11;;;;;;;2.35;1.45;;;9.40;99.90;;;;;;5046469;28;20314;-68
2023/01/08 10:20:40;;;;;;;1.35;1.25;;;9.50;99.90;;;;;;5027602;28;20646;-68
2023/01/08 10:23:12;;;;;;;3.47;2.13;;;9.50;99.90;;;;;;5051025;28;20285;-68
2023/01/08 10:25:59;;;;;;;2.67;1.45;;;9.50;99.90;;;;;;5036525;28;20206;-70
2023/01/08 10:28:28;;;;;;;2.53;1.50;;;9.50;99.90;;;;;;5038174;28;20212;-68
2023/01/08 10:31:03;;;;;;;2.25;1.55;;;9.60;99.90;;;;;;5029916;28;20227;-68
2023/01/08 10:33:37;;;;;;;1.90;1.67;;;9.60;99.90;;;;;;5034871;28;20794;-68
2023/01/08 10:36:09;;;;;;;3.97;1.60;;;9.60;99.90;;;;;;5014931;28;20235;-68
2023/01/08 10:38:40;;;;;;;3.20;1.63;;;9.60;99.90;;;;;;5036357;28;20344;-68
2023/01/08 10:41:11;;;;;;;1.67;1.30;;;9.60;99.90;;;;;;5026604;28;20358;-68
2023/01/08 10:43:48;;;;;;;5.80;1.60;;;9.60;99.90;;;;;;5036190;28;20323;-68
2023/01/08 10:46:21;;;;;;;1.90;1.23;;;9.60;99.90;;;;;;5047765;28;20228;-68
2023/01/08 10:48:53;;;;;;;1.80;1.23;;;9.70;99.90;;;;;;5022130;28;21079;-68
2023/01/08 10:51:23;;;;;;;3.55;1.30;;;9.60;99.90;;;;;;5015090;28;20690;-68
2023/01/08 10:53:50;;;;;;;4.68;1.38;;;9.70;99.90;;;;;;5040042;28;20227;-68
2023/01/08 10:56:22;;;;;;;3.00;1.40;;;9.70;99.90;;;;;;5019454;28;20220;-69
2023/01/08 10:58:50;;;;;;;3.00;1.30;;;9.70;99.90;;;;;;5038445;28;20350;-68
2023/01/08 11:01:20;;;;;;;2.08;1.25;;;9.70;99.90;;;;;;5053374;28;20897;-68
2023/01/08 11:03:50;;;;;;;2.00;1.05;;;9.70;99.90;;;;;;5022623;28;20312;-68
2023/01/08 11:06:23;;;;;;;2.53;1.20;;;9.70;99.90;;;;;;5015692;28;20741;-68
2023/01/08 11:08:51;;;;;;;4.95;1.33;;;9.70;99.90;;;;;;5032459;28;21057;-68
2023/01/08 11:11:18;;;;;;;3.45;1.10;;;9.70;99.90;;;;;;5020810;28;20959;-68
2023/01/08 11:13:57;;;;;;;1.55;0.85;;;9.80;99.90;;;;;;5039415;28;20217;-68
2023/01/08 11:16:32;;;;;;;3.85;1.25;;;9.80;99.90;;;;;;5043567;28;20302;-67
2023/01/08 11:18:59;;;;;;;1.95;1.15;;;9.50;99.90;;;;;;5031687;28;20195;-68
2023/01/08 11:21:30;;;;;;;3.40;1.52;;;9.80;99.90;;;;;;5018159;28;20409;-67
2023/01/08 11:24:11;;;;;;;2.50;1.05;;;9.80;99.90;;;;;;5048673;28;20215;-68
2023/01/08 11:26:41;;;;;;;3.13;1.40;;;9.80;99.90;;;;;;5027240;28;20220;-68
2023/01/08 11:29:15;;;;;;;2.33;0.90;;;9.80;99.90;;;;;;5033786;28;20362;-68
2023/01/08 11:31:46;;;;;;;1.40;1.00;;;9.80;99.90;;;;;;5049267;28;20719;-67
2023/01/08 11:34:18;;;;;;;4.63;0.90;;;9.80;99.90;;;;;;5046050;28;20230;-68
2023/01/08 11:36:51;;;;;;;2.78;1.08;;;9.90;99.90;;;;;;5022252;28;20295;-67
2023/01/08 11:39:18;;;;;;;5.05;1.23;;;9.90;99.90;;;;;;5053389;28;22169;-67
2023/01/08 11:42:11;;;;;;;4.40;0.90;;;9.90;99.90;;;;;;5037175;28;20232;-67
2023/01/08 11:44:50;;;;;;;1.65;1.00;;;9.90;99.90;;;;;;5028748;28;20394;-67
2023/01/08 11:47:27;;;;;;;5.30;1.30;;;9.90;99.90;;;;;;5049749;28;20318;-69
2023/01/08 11:50:09;;;;;;;2.53;1.35;;;9.90;99.90;;;;;;5044830;28;20329;-68
2023/01/08 11:52:50;;;;;;;4.80;1.60;;;9.90;99.90;;;;;;5000436;28;20228;-68
2023/01/08 11:55:29;;;;;;;3.58;1.80;;;10.00;99.90;;;;;;5051385;28;20315;-68
2023/01/08 11:58:13;;;;;;;3.13;1.40;;;10.00;99.90;;;;;;5018397;28;20327;-68
2023/01/08 12:00:52;;;;;;;2.47;1.80;;;10.00;99.90;;;;;;5036254;28;20529;-68
2023/01/08 12:03:30;;;;;;;1.73;1.40;;;10.00;99.90;;;;;;5051586;28;20672;-68
2023/01/08 12:06:09;;;;;;;2.97;1.52;;;10.10;99.90;;;;;;5004644;28;20234;-68
2023/01/08 12:08:47;;;;;;;5.53;1.40;;;10.10;99.90;;;;;;5045966;28;20227;-69
2023/01/08 12:11:20;;;;;;;2.20;1.10;;;10.10;99.90;;;;;;5054568;28;20212;-69
2023/01/08 12:14:03;;;;;;;3.40;1.40;;;10.10;99.90;;;;;;5013952;28;20265;-68
2023/01/08 12:16:47;;;;;;;5.45;1.50;;;10.20;99.90;;;;;;5055504;28;20303;-69
2023/01/08 12:19:26;;;;;;;1.73;1.27;;;10.10;99.90;;;;;;5046199;28;20674;-70
2023/01/08 12:22:18;;;;;;;2.38;1.17;;;10.10;99.90;;;;;;5028309;28;20222;-68
2023/01/08 12:25:02;;;;;;;3.10;1.27;;;10.10;99.90;;;;;;5028841;28;20615;-68
2023/01/08 12:27:40;;;;;;;3.78;1.15;;;10.10;99.90;;;;;;5043924;28;20413;-68
2023/01/08 12:30:17;;;;;;;4.40;1.60;;;10.10;99.90;;;;;;5051443;28;20311;-68
2023/01/08 12:32:47;;;;;;;3.45;1.20;;;10.10;99.90;;;;;;5067486;28;20724;-68
2023/01/08 12:35:19;;;;;;;3.72;1.10;;;10.10;99.90;;;;;;5056127;28;20311;-68
2023/01/08 12:37:52;;;;;;;3.28;1.27;;;10.00;99.90;;;;;;5039632;28;20225;-68
2023/01/08 12:40:24;;;;;;;2.88;1.27;;;10.10;99.90;;;;;;5042793;28;20330;-69
2023/01/08 12:42:51;;;;;;;4.55;1.40;;;10.10;99.90;;;;;;5057628;28;20211;-68
2023/01/08 12:45:24;;;;;;;2.13;0.95;;;10.00;99.90;;;;;;5058481;28;20359;-68
2023/01/08 12:47:56;;;;;;;2.10;1.10;;;10.00;99.90;;;;;;5067964;28;20330;-68
2023/01/08 12:50:49;;;;;;;3.17;0.93;;;10.10;99.90;;;;;;5074399;28;20293;-67
2023/01/08 12:53:25;;;;;;;5.32;1.85;;;10.00;99.90;;;;;;5029807;28;20232;-69
2023/01/08 12:56:02;;;;;;;3.05;1.08;;;10.00;99.90;;;;;;5049479;28;20296;-68
2023/01/08 12:58:38;;;;;;;3.67;1.40;;;10.00;99.90;;;;;;5069053;28;20867;-68
2023/01/08 13:01:17;;;;;;;2.78;1.05;;;12.50;99.90;;;;;;5055783;28;20239;-68
2023/01/08 13:03:45;;;;;;;4.35;1.25;;;10.00;99.90;;;;;;5051794;28;20585;-68
2023/01/08 13:06:15;;;;;;;4.07;1.33;;;10.00;99.90;;;;;;5058855;28;20356;-68